La rose des vents
Donnes mto: Semaine 13/08/07 - 19/08/07 (S 33)
Date Horaire Temp. E. Hum. E. P.atmo. Pluie Vent 1mn Direction Ensoleilleme Ev.Tr. Solaire P. de rose Temp au vent Rafales
13/08/2007 00:00 19,0 C 93 % 1009,1 hPa 0,0 l/m 2,5 km/h (1 Bft) O-NO 0,00 h 0,025 mm 0 W/m 17,8 C 19,0 C 4,5 km/h (1 Bft)
13/08/2007 01:00 18,9 C 93 % 1009,1 hPa 0,0 l/m 2,1 km/h (1 Bft) O-NO 0,00 h 0,025 mm 0 W/m 17,7 C 18,9 C 3,7 km/h (1 Bft)
13/08/2007 02:00 18,7 C 92 % 1009,2 hPa 0,0 l/m 1,4 km/h (1 Bft) O-NO 0,00 h 0,025 mm 0 W/m 17,4 C 18,7 C 2,8 km/h (1 Bft)
13/08/2007 03:00 18,7 C 92 % 1009,3 hPa 0,0 l/m 2,6 km/h (1 Bft) O-NO 0,00 h 0,025 mm 0 W/m 17,3 C 18,7 C 4,1 km/h (1 Bft)
13/08/2007 04:00 18,9 C 91 % 1009,3 hPa 0,0 l/m 1,2 km/h (1 Bft) NO 0,00 h 0,025 mm 0 W/m 17,4 C 18,9 C 2,6 km/h (1 Bft)
13/08/2007 05:00 19,7 C 89 % 1009,6 hPa 0,0 l/m 0,5 km/h (0 Bft) NO 0,00 h 0,025 mm 0 W/m 17,9 C 19,7 C 1,3 km/h (1 Bft)
13/08/2007 06:00 19,9 C 87 % 1009,8 hPa 0,0 l/m 1,6 km/h (1 Bft) NO 0,00 h 0,025 mm 12 W/m 17,8 C 19,9 C 2,9 km/h (1 Bft)
13/08/2007 07:00 19,7 C 85 % 1009,8 hPa 0,0 l/m 1,2 km/h (1 Bft) NO 0,17 h 0,000 mm 62 W/m 17,2 C 19,7 C 2,3 km/h (1 Bft)
13/08/2007 08:00 21,9 C 78 % 1009,8 hPa 0,0 l/m 0,6 km/h (0 Bft) N 0,88 h 0,051 mm 220 W/m 17,8 C 21,9 C 1,7 km/h (1 Bft)
13/08/2007 09:00 24,3 C 69 % 1010,0 hPa 0,0 l/m 4,1 km/h (1 Bft) E-SE 1,00 h 0,127 mm 392 W/m 18,1 C 24,3 C 7,2 km/h (2 Bft)
13/08/2007 10:00 26,0 C 62 % 1010,5 hPa 0,0 l/m 6,2 km/h (2 Bft) E 1,00 h 0,279 mm 548 W/m 18,2 C 26,0 C 10,3 km/h (2 Bft)
13/08/2007 11:00 26,4 C 65 % 1010,6 hPa 0,0 l/m 10,8 km/h (2 Bft) E 1,00 h 0,381 mm 684 W/m 19,2 C 26,4 C 16,0 km/h (3 Bft)
13/08/2007 12:00 26,7 C 64 % 1010,8 hPa 0,0 l/m 10,9 km/h (2 Bft) E 0,90 h 0,508 mm 752 W/m 19,4 C 26,7 C 16,8 km/h (3 Bft)
13/08/2007 13:00 26,9 C 60 % 1011,3 hPa 0,0 l/m 10,9 km/h (2 Bft) E 0,68 h 0,533 mm 580 W/m 18,5 C 26,9 C 16,3 km/h (3 Bft)
13/08/2007 14:00 26,9 C 57 % 1011,4 hPa 0,0 l/m 7,7 km/h (2 Bft) E-NE 0,20 h 0,483 mm 416 W/m 17,7 C 26,9 C 12,2 km/h (2 Bft)
13/08/2007 15:00 25,9 C 63 % 1011,7 hPa 0,0 l/m 7,2 km/h (2 Bft) S-SE 0,05 h 0,330 mm 237 W/m 18,3 C 25,9 C 12,5 km/h (3 Bft)
13/08/2007 16:00 25,5 C 63 % 1011,7 hPa 0,0 l/m 10,1 km/h (2 Bft) S 0,15 h 0,203 mm 212 W/m 18,0 C 25,5 C 15,2 km/h (3 Bft)
13/08/2007 17:00 23,7 C 65 % 1012,0 hPa 0,0 l/m 6,7 km/h (2 Bft) S 0,00 h 0,203 mm 48 W/m 16,7 C 23,7 C 10,3 km/h (2 Bft)
13/08/2007 18:00 23,5 C 70 % 1011,7 hPa 0,0 l/m 1,2 km/h (1 Bft) E-SE 0,00 h 0,076 mm 66 W/m 17,6 C 23,5 C 2,5 km/h (1 Bft)
13/08/2007 19:00 22,8 C 75 % 1011,6 hPa 0,0 l/m 0,0 km/h (0 Bft) N 0,00 h 0,051 mm 15 W/m 18,1 C 22,8 C 0,2 km/h (0 Bft)
13/08/2007 20:00 22,3 C 78 % 1011,5 hPa 0,0 l/m 1,1 km/h (1 Bft) E-NE 0,32 h 0,025 mm 27 W/m 18,4 C 22,3 C 2,4 km/h (1 Bft)
13/08/2007 21:00 21,3 C 80 % 1011,8 hPa 0,0 l/m 4,1 km/h (1 Bft) S-SO 0,00 h 0,025 mm 0 W/m 17,8 C 21,3 C 5,6 km/h (1 Bft)
13/08/2007 22:00 20,6 C 82 % 1012,4 hPa 0,0 l/m 3,6 km/h (1 Bft) SO 0,00 h 0,025 mm 0 W/m 17,4 C 20,6 C 5,8 km/h (2 Bft)
13/08/2007 23:00 20,1 C 86 % 1012,4 hPa 0,0 l/m 4,1 km/h (1 Bft) O 0,00 h 0,025 mm 0 W/m 17,7 C 20,1 C 6,0 km/h (2 Bft)
14/08/2007 00:00 19,3 C 87 % 1012,5 hPa 0,0 l/m 0,6 km/h (0 Bft) O 0,00 h 0,025 mm 0 W/m 17,1 C 19,3 C 1,4 km/h (1 Bft)
14/08/2007 01:00 19,0 C 88 % 1012,7 hPa 0,0 l/m 0,1 km/h (0 Bft) O 0,00 h 0,025 mm 0 W/m 17,0 C 19,0 C 0,4 km/h (0 Bft)
14/08/2007 02:00 19,3 C 89 % 1012,5 hPa 0,0 l/m 2,5 km/h (1 Bft) O 0,00 h 0,025 mm 0 W/m 17,4 C 19,3 C 3,7 km/h (1 Bft)
14/08/2007 03:00 18,8 C 88 % 1012,5 hPa 0,0 l/m 1,1 km/h (0 Bft) O 0,00 h 0,025 mm 0 W/m 16,9 C 18,8 C 1,8 km/h (1 Bft)
14/08/2007 04:00 18,5 C 88 % 1012,5 hPa 0,0 l/m 0,7 km/h (0 Bft) O 0,00 h 0,025 mm 0 W/m 16,6 C 18,5 C 1,1 km/h (1 Bft)
14/08/2007 05:00 18,7 C 89 % 1012,2 hPa 0,0 l/m 1,9 km/h (1 Bft) O 0,00 h 0,025 mm 0 W/m 16,9 C 18,7 C 3,1 km/h (1 Bft)
14/08/2007 06:00 18,8 C 91 % 1012,4 hPa 0,0 l/m 4,3 km/h (1 Bft) O-NO 0,00 h 0,025 mm 11 W/m 17,2 C 18,8 C 6,3 km/h (2 Bft)
14/08/2007 07:00 18,9 C 91 % 1012,8 hPa 0,0 l/m 1,9 km/h (1 Bft) O-NO 0,00 h 0,025 mm 50 W/m 17,4 C 18,9 C 3,5 km/h (1 Bft)
14/08/2007 08:00 20,3 C 84 % 1013,1 hPa 0,0 l/m 0,3 km/h (0 Bft) NO 0,67 h 0,025 mm 196 W/m 17,4 C 20,3 C 1,0 km/h (0 Bft)
14/08/2007 09:00 22,8 C 75 % 1013,3 hPa 0,0 l/m 3,4 km/h (1 Bft) S-SO 0,87 h 0,127 mm 380 W/m 18,1 C 22,8 C 6,0 km/h (2 Bft)
14/08/2007 10:00 24,9 C 67 % 1013,3 hPa 0,0 l/m 5,3 km/h (1 Bft) E 1,00 h 0,254 mm 567 W/m 18,4 C 24,9 C 8,9 km/h (2 Bft)
14/08/2007 11:00 25,7 C 65 % 1013,5 hPa 0,0 l/m 8,1 km/h (2 Bft) E 0,70 h 0,381 mm 604 W/m 18,6 C 25,7 C 12,5 km/h (3 Bft)
14/08/2007 12:00 26,2 C 65 % 1013,4 hPa 0,0 l/m 10,4 km/h (2 Bft) E 0,53 h 0,381 mm 587 W/m 19,0 C 26,2 C 15,7 km/h (3 Bft)
14/08/2007 13:00 26,3 C 65 % 1013,4 hPa 0,0 l/m 10,2 km/h (2 Bft) E 0,35 h 0,457 mm 467 W/m 19,2 C 26,3 C 15,7 km/h (3 Bft)
14/08/2007 14:00 24,8 C 72 % 1013,5 hPa 0,0 l/m 10,4 km/h (2 Bft) E 0,07 h 0,356 mm 337 W/m 19,3 C 24,8 C 15,4 km/h (3 Bft)
14/08/2007 15:00 24,5 C 74 % 1013,3 hPa 0,0 l/m 8,7 km/h (2 Bft) E 0,00 h 0,279 mm 215 W/m 19,5 C 24,5 C 13,1 km/h (3 Bft)
14/08/2007 16:00 24,4 C 74 % 1013,2 hPa 0,0 l/m 7,1 km/h (2 Bft) E 0,15 h 0,178 mm 282 W/m 19,4 C 24,4 C 10,9 km/h (2 Bft)
14/08/2007 17:00 23,8 C 76 % 1013,1 hPa 0,0 l/m 7,3 km/h (2 Bft) E 0,05 h 0,203 mm 180 W/m 19,4 C 23,8 C 10,7 km/h (2 Bft)
14/08/2007 18:00 23,4 C 77 % 1013,0 hPa 0,0 l/m 6,5 km/h (2 Bft) E 0,13 h 0,152 mm 148 W/m 19,1 C 23,4 C 9,0 km/h (2 Bft)
14/08/2007 19:00 22,7 C 80 % 1012,8 hPa 0,0 l/m 5,0 km/h (1 Bft) E 0,00 h 0,127 mm 59 W/m 19,1 C 22,7 C 7,4 km/h (2 Bft)
14/08/2007 20:00 22,0 C 84 % 1013,0 hPa 0,0 l/m 1,6 km/h (1 Bft) E-SE 0,00 h 0,051 mm 12 W/m 19,1 C 22,0 C 3,3 km/h (1 Bft)
14/08/2007 21:00 21,5 C 85 % 1013,2 hPa 0,0 l/m 0,2 km/h (0 Bft) E-SE 0,00 h 0,025 mm 0 W/m 18,9 C 21,5 C 0,7 km/h (0 Bft)
14/08/2007 22:00 20,8 C 88 % 1013,4 hPa 0,0 l/m 0,0 km/h (0 Bft) N 0,00 h 0,025 mm 0 W/m 18,6 C 20,8 C 0,0 km/h (0 Bft)
14/08/2007 23:00 20,5 C 88 % 1013,6 hPa 0,0 l/m 0,0 km/h (0 Bft) N 0,00 h 0,025 mm 0 W/m 18,5 C 20,5 C 0,0 km/h (0 Bft)
15/08/2007 00:00 20,2 C 89 % 1013,5 hPa 0,0 l/m 0,0 km/h (0 Bft) N 0,00 h 0,025 mm 0 W/m 18,3 C 20,2 C 0,0 km/h (0 Bft)
15/08/2007 01:00 19,9 C 90 % 1013,5 hPa 0,0 l/m 0,0 km/h (0 Bft) N 0,00 h 0,025 mm 0 W/m 18,2 C 19,9 C 0,0 km/h (0 Bft)
15/08/2007 02:00 19,8 C 91 % 1013,5 hPa 0,0 l/m 0,3 km/h (0 Bft) E-SE 0,00 h 0,025 mm 0 W/m 18,3 C 19,8 C 0,9 km/h (0 Bft)
15/08/2007 03:00 19,5 C 91 % 1013,1 hPa 0,0 l/m 1,5 km/h (1 Bft) O-NO 0,00 h 0,025 mm 0 W/m 18,1 C 19,5 C 3,1 km/h (1 Bft)
15/08/2007 04:00 19,2 C 92 % 1012,8 hPa 0,0 l/m 1,1 km/h (0 Bft) NO 0,00 h 0,025 mm 0 W/m 17,8 C 19,2 C 2,3 km/h (1 Bft)
15/08/2007 05:00 18,8 C 93 % 1012,6 hPa 0,0 l/m 2,4 km/h (1 Bft) NO 0,00 h 0,025 mm 0 W/m 17,6 C 18,8 C 4,5 km/h (1 Bft)
15/08/2007 06:00 18,6 C 93 % 1012,6 hPa 0,0 l/m 2,7 km/h (1 Bft) NO 0,03 h 0,025 mm 12 W/m 17,4 C 18,6 C 4,1 km/h (1 Bft)
15/08/2007 07:00 18,9 C 93 % 1013,1 hPa 0,0 l/m 0,9 km/h (0 Bft) NO 0,00 h 0,000 mm 53 W/m 17,7 C 18,9 C 2,3 km/h (1 Bft)
15/08/2007 08:00 20,6 C 88 % 1013,5 hPa 0,0 l/m 0,2 km/h (0 Bft) NO 0,52 h 0,025 mm 179 W/m 18,6 C 20,6 C 1,0 km/h (0 Bft)
15/08/2007 09:00 23,7 C 76 % 1013,5 hPa 0,0 l/m 4,4 km/h (1 Bft) E-NE 0,88 h 0,102 mm 419 W/m 19,3 C 23,7 C 7,3 km/h (2 Bft)
15/08/2007 10:00 24,4 C 73 % 1013,6 hPa 0,0 l/m 5,1 km/h (1 Bft) E-SE 0,28 h 0,279 mm 361 W/m 19,3 C 24,4 C 8,6 km/h (2 Bft)
15/08/2007 11:00 25,4 C 69 % 1013,8 hPa 0,0 l/m 7,1 km/h (2 Bft) E 0,57 h 0,254 mm 578 W/m 19,2 C 25,4 C 12,4 km/h (3 Bft)
15/08/2007 12:00 26,4 C 64 % 1013,7 hPa 0,0 l/m 9,2 km/h (2 Bft) E 0,72 h 0,406 mm 697 W/m 18,9 C 26,4 C 14,5 km/h (3 Bft)
15/08/2007 13:00 25,5 C 68 % 1013,5 hPa 0,0 l/m 8,9 km/h (2 Bft) E 0,00 h 0,483 mm 301 W/m 19,0 C 25,5 C 13,5 km/h (3 Bft)
15/08/2007 14:00 25,1 C 73 % 1013,4 hPa 0,0 l/m 9,7 km/h (2 Bft) E 0,02 h 0,254 mm 267 W/m 19,8 C 25,1 C 13,8 km/h (3 Bft)
15/08/2007 15:00 26,6 C 65 % 1013,0 hPa 0,0 l/m 10,9 km/h (2 Bft) E 0,72 h 0,229 mm 624 W/m 19,5 C 26,6 C 15,9 km/h (3 Bft)
15/08/2007 16:00 27,0 C 66 % 1012,7 hPa 0,0 l/m 10,5 km/h (2 Bft) E 0,80 h 0,457 mm 565 W/m 20,0 C 27,0 C 15,2 km/h (3 Bft)
15/08/2007 17:00 26,2 C 71 % 1012,5 hPa 0,0 l/m 8,4 km/h (2 Bft) E 1,00 h 0,432 mm 442 W/m 20,5 C 26,2 C 13,2 km/h (3 Bft)
15/08/2007 18:00 24,8 C 77 % 1012,2 hPa 0,0 l/m 4,1 km/h (1 Bft) S-SE 0,42 h 0,330 mm 199 W/m 20,6 C 24,8 C 7,4 km/h (2 Bft)
15/08/2007 19:00 23,4 C 82 % 1012,2 hPa 0,0 l/m 3,4 km/h (1 Bft) E 0,00 h 0,127 mm 50 W/m 20,3 C 23,4 C 6,2 km/h (2 Bft)
15/08/2007 20:00 22,4 C 87 % 1012,1 hPa 0,0 l/m 1,7 km/h (1 Bft) E-NE 0,02 h 0,051 mm 14 W/m 20,2 C 22,4 C 3,4 km/h (1 Bft)
15/08/2007 21:00 21,9 C 91 % 1012,2 hPa 0,0 l/m 0,1 km/h (0 Bft) E-NE 0,00 h 0,025 mm 0 W/m 20,3 C 21,9 C 0,5 km/h (0 Bft)
15/08/2007 22:00 21,8 C 91 % 1012,3 hPa 0,0 l/m 0,2 km/h (0 Bft) E-NE 0,00 h 0,025 mm 0 W/m 20,3 C 21,8 C 0,9 km/h (0 Bft)
15/08/2007 23:00 21,5 C 92 % 1012,3 hPa 0,0 l/m 0,0 km/h (0 Bft) N 0,00 h 0,025 mm 0 W/m 20,1 C 21,5 C 0,0 km/h (0 Bft)
16/08/2007 00:00 20,9 C 92 % 1012,2 hPa 0,0 l/m 1,0 km/h (0 Bft) E-NE 0,00 h 0,025 mm 0 W/m 19,6 C 20,9 C 1,5 km/h (1 Bft)
16/08/2007 01:00 20,3 C 93 % 1012,3 hPa 0,0 l/m 4,6 km/h (1 Bft) O-NO 0,00 h 0,025 mm 0 W/m 19,1 C 20,3 C 6,3 km/h (2 Bft)
16/08/2007 02:00 19,7 C 94 % 1011,9 hPa 0,0 l/m 5,8 km/h (2 Bft) O 0,00 h 0,025 mm 0 W/m 18,7 C 19,7 C 7,9 km/h (2 Bft)
16/08/2007 03:00 18,8 C 95 % 1011,3 hPa 0,0 l/m 5,1 km/h (1 Bft) O 0,00 h 0,025 mm 0 W/m 17,9 C 18,8 C 7,3 km/h (2 Bft)
16/08/2007 04:00 18,0 C 95 % 1011,0 hPa 0,0 l/m 2,0 km/h (1 Bft) O-NO 0,00 h 0,025 mm 0 W/m 17,2 C 18,0 C 3,5 km/h (1 Bft)
16/08/2007 05:00 18,0 C 95 % 1010,9 hPa 0,0 l/m 1,1 km/h (0 Bft) O-NO 0,00 h 0,000 mm 0 W/m 17,2 C 18,0 C 1,8 km/h (1 Bft)
16/08/2007 06:00 17,8 C 93 % 1010,9 hPa 0,0 l/m 1,8 km/h (1 Bft) O-NO 0,03 h 0,000 mm 10 W/m 16,6 C 17,8 C 3,7 km/h (1 Bft)
16/08/2007 07:00 18,5 C 84 % 1011,0 hPa 0,0 l/m 1,2 km/h (1 Bft) O-NO 0,20 h 0,000 mm 57 W/m 15,7 C 18,5 C 2,7 km/h (1 Bft)
16/08/2007 08:00 21,5 C 66 % 1011,0 hPa 0,0 l/m 0,7 km/h (0 Bft) O-NO 0,72 h 0,051 mm 195 W/m 14,7 C 21,5 C 2,2 km/h (1 Bft)
16/08/2007 09:00 24,8 C 58 % 1010,9 hPa 0,0 l/m 2,9 km/h (1 Bft) E 1,00 h 0,127 mm 396 W/m 16,0 C 24,8 C 5,2 km/h (1 Bft)
16/08/2007 10:00 26,2 C 61 % 1010,7 hPa 0,0 l/m 7,0 km/h (2 Bft) E 1,00 h 0,279 mm 545 W/m 17,9 C 26,2 C 10,4 km/h (2 Bft)
16/08/2007 11:00 28,2 C 58 % 1010,5 hPa 0,0 l/m 8,0 km/h (2 Bft) E-NE 1,00 h 0,406 mm 669 W/m 19,0 C 28,2 C 12,6 km/h (3 Bft)
16/08/2007 12:00 28,6 C 61 % 1010,3 hPa 0,0 l/m 16,6 km/h (3 Bft) S-SE 1,00 h 0,508 mm 749 W/m 20,4 C 28,6 C 24,0 km/h (4 Bft)
16/08/2007 13:00 28,6 C 64 % 1010,2 hPa 0,0 l/m 12,6 km/h (3 Bft) S 1,00 h 0,610 mm 787 W/m 21,2 C 28,6 C 19,5 km/h (3 Bft)
16/08/2007 14:00 28,6 C 63 % 1010,3 hPa 0,0 l/m 11,6 km/h (2 Bft) S 0,85 h 0,584 mm 711 W/m 20,9 C 28,6 C 18,0 km/h (3 Bft)
16/08/2007 15:00 28,1 C 63 % 1010,4 hPa 0,0 l/m 9,2 km/h (2 Bft) S 0,73 h 0,533 mm 612 W/m 20,4 C 28,1 C 15,7 km/h (3 Bft)
16/08/2007 16:00 28,1 C 64 % 1010,4 hPa 0,0 l/m 9,1 km/h (2 Bft) S-SE 0,95 h 0,457 mm 561 W/m 20,6 C 28,1 C 14,7 km/h (3 Bft)
16/08/2007 17:00 27,5 C 67 % 1010,2 hPa 0,0 l/m 7,7 km/h (2 Bft) E 0,87 h 0,432 mm 380 W/m 20,8 C 27,5 C 12,2 km/h (2 Bft)
16/08/2007 18:00 25,7 C 77 % 1010,1 hPa 0,0 l/m 6,0 km/h (2 Bft) E 0,93 h 0,305 mm 247 W/m 21,4 C 25,7 C 9,1 km/h (2 Bft)
16/08/2007 19:00 24,6 C 81 % 1009,8 hPa 0,0 l/m 3,2 km/h (1 Bft) E 0,40 h 0,178 mm 97 W/m 21,1 C 24,6 C 5,3 km/h (1 Bft)
16/08/2007 20:00 22,9 C 87 % 1010,0 hPa 0,0 l/m 1,5 km/h (1 Bft) E-SE 0,00 h 0,076 mm 13 W/m 20,6 C 22,9 C 3,1 km/h (1 Bft)
16/08/2007 21:00 22,1 C 90 % 1010,5 hPa 0,0 l/m 0,5 km/h (0 Bft) E-SE 0,00 h 0,025 mm 0 W/m 20,4 C 22,1 C 1,4 km/h (1 Bft)
16/08/2007 22:00 21,5 C 92 % 1010,7 hPa 0,0 l/m 0,0 km/h (0 Bft) N 0,00 h 0,025 mm 0 W/m 20,1 C 21,5 C 0,2 km/h (0 Bft)
16/08/2007 23:00 21,2 C 93 % 1010,8 hPa 0,0 l/m 0,0 km/h (0 Bft) N 0,00 h 0,025 mm 0 W/m 20,0 C 21,2 C 0,1 km/h (0 Bft)
17/08/2007 00:00 21,2 C 93 % 1010,9 hPa 0,0 l/m 1,1 km/h (1 Bft) S-SO 0,00 h 0,000 mm 0 W/m 20,0 C 21,2 C 1,5 km/h (1 Bft)
17/08/2007 01:00 20,9 C 94 % 1010,9 hPa 0,0 l/m 4,5 km/h (1 Bft) O-SO 0,00 h 0,025 mm 0 W/m 19,9 C 20,9 C 6,0 km/h (2 Bft)
17/08/2007 02:00 20,1 C 95 % 1010,8 hPa 0,0 l/m 2,1 km/h (1 Bft) O-SO 0,00 h 0,025 mm 0 W/m 19,3 C 20,1 C 3,3 km/h (1 Bft)
17/08/2007 03:00 19,8 C 95 % 1010,7 hPa 0,0 l/m 0,2 km/h (0 Bft) O-NO 0,00 h 0,000 mm 0 W/m 19,0 C 19,8 C 0,4 km/h (0 Bft)
17/08/2007 04:00 19,3 C 96 % 1010,7 hPa 0,2 l/m 0,7 km/h (0 Bft) O 0,00 h 0,000 mm 0 W/m 18,6 C 19,3 C 1,5 km/h (1 Bft)
17/08/2007 05:00 17,7 C 95 % 1010,8 hPa 0,0 l/m 1,0 km/h (0 Bft) NO 0,00 h 0,000 mm 0 W/m 17,0 C 17,7 C 1,6 km/h (1 Bft)
17/08/2007 06:00 16,9 C 95 % 1011,1 hPa 0,0 l/m 1,7 km/h (1 Bft) O-NO 0,00 h 0,000 mm 10 W/m 16,2 C 16,9 C 2,9 km/h (1 Bft)
17/08/2007 07:00 18,3 C 95 % 1011,2 hPa 0,0 l/m 1,8 km/h (1 Bft) O-NO 0,23 h 0,000 mm 58 W/m 17,4 C 18,3 C 3,8 km/h (1 Bft)
17/08/2007 08:00 20,6 C 87 % 1011,3 hPa 0,0 l/m 1,1 km/h (0 Bft) N 0,78 h 0,025 mm 199 W/m 18,3 C 20,6 C 2,6 km/h (1 Bft)
17/08/2007 09:00 23,2 C 75 % 1011,0 hPa 0,0 l/m 3,0 km/h (1 Bft) E-SE 0,85 h 0,127 mm 388 W/m 18,5 C 23,2 C 5,6 km/h (1 Bft)
17/08/2007 10:00 25,0 C 66 % 1011,2 hPa 0,0 l/m 4,3 km/h (1 Bft) E 1,00 h 0,254 mm 588 W/m 18,3 C 25,0 C 7,8 km/h (2 Bft)
17/08/2007 11:00 27,0 C 56 % 1010,9 hPa 0,0 l/m 8,7 km/h (2 Bft) E 1,00 h 0,406 mm 711 W/m 17,4 C 27,0 C 13,6 km/h (3 Bft)
17/08/2007 12:00 27,8 C 49 % 1010,7 hPa 0,0 l/m 10,0 km/h (2 Bft) E 1,00 h 0,533 mm 788 W/m 16,1 C 27,8 C 15,5 km/h (3 Bft)
17/08/2007 13:00 28,9 C 42 % 1010,3 hPa 0,0 l/m 9,3 km/h (2 Bft) E 1,00 h 0,610 mm 822 W/m 14,8 C 28,9 C 15,6 km/h (3 Bft)
17/08/2007 14:00 29,7 C 37 % 1010,1 hPa 0,0 l/m 13,6 km/h (3 Bft) E-NE 1,00 h 0,635 mm 799 W/m 13,2 C 29,7 C 19,0 km/h (3 Bft)
17/08/2007 15:00 30,1 C 36 % 1009,7 hPa 0,0 l/m 15,9 km/h (3 Bft) E-NE 1,00 h 0,686 mm 725 W/m 13,5 C 30,1 C 21,3 km/h (4 Bft)
17/08/2007 16:00 29,6 C 39 % 1009,6 hPa 0,0 l/m 13,2 km/h (3 Bft) E-NE 1,00 h 0,660 mm 608 W/m 13,9 C 29,6 C 18,8 km/h (3 Bft)
17/08/2007 17:00 28,6 C 41 % 1009,8 hPa 0,0 l/m 16,2 km/h (3 Bft) E-NE 1,00 h 0,559 mm 454 W/m 13,9 C 28,6 C 22,2 km/h (4 Bft)
17/08/2007 18:00 27,2 C 45 % 1010,2 hPa 0,0 l/m 13,4 km/h (3 Bft) E-NE 1,00 h 0,457 mm 282 W/m 14,1 C 27,2 C 19,9 km/h (4 Bft)
17/08/2007 19:00 25,5 C 44 % 1010,7 hPa 0,0 l/m 12,3 km/h (3 Bft) NE 0,88 h 0,305 mm 116 W/m 12,3 C 25,5 C 18,3 km/h (3 Bft)
17/08/2007 20:00 23,1 C 54 % 1011,2 hPa 0,0 l/m 11,4 km/h (2 Bft) E-NE 0,03 h 0,203 mm 13 W/m 13,3 C 23,1 C 16,0 km/h (3 Bft)
17/08/2007 21:00 21,8 C 64 % 1011,8 hPa 0,0 l/m 5,6 km/h (1 Bft) E 0,00 h 0,102 mm 0 W/m 14,7 C 21,8 C 8,7 km/h (2 Bft)
17/08/2007 22:00 21,0 C 76 % 1012,3 hPa 0,0 l/m 3,4 km/h (1 Bft) E 0,00 h 0,051 mm 0 W/m 16,7 C 21,0 C 5,6 km/h (1 Bft)
17/08/2007 23:00 20,3 C 79 % 1012,2 hPa 0,0 l/m 1,1 km/h (1 Bft) E-NE 0,00 h 0,025 mm 0 W/m 16,6 C 20,3 C 2,3 km/h (1 Bft)
18/08/2007 00:00 19,4 C 81 % 1012,4 hPa 0,0 l/m 4,2 km/h (1 Bft) E 0,00 h 0,025 mm 0 W/m 16,1 C 19,4 C 5,8 km/h (2 Bft)
18/08/2007 01:00 19,5 C 86 % 1012,4 hPa 0,0 l/m 6,8 km/h (2 Bft) O 0,00 h 0,025 mm 0 W/m 17,1 C 19,5 C 9,3 km/h (2 Bft)
18/08/2007 02:00 19,1 C 86 % 1012,2 hPa 0,0 l/m 7,1 km/h (2 Bft) O 0,00 h 0,025 mm 0 W/m 16,7 C 19,1 C 9,0 km/h (2 Bft)
18/08/2007 03:00 18,6 C 79 % 1011,9 hPa 0,0 l/m 7,8 km/h (2 Bft) O-NO 0,00 h 0,025 mm 0 W/m 14,9 C 18,6 C 10,3 km/h (2 Bft)
18/08/2007 04:00 18,5 C 66 % 1011,7 hPa 0,0 l/m 6,6 km/h (2 Bft) O-NO 0,00 h 0,051 mm 0 W/m 12,1 C 18,5 C 8,4 km/h (2 Bft)
18/08/2007 05:00 18,7 C 69 % 1011,7 hPa 0,0 l/m 6,7 km/h (2 Bft) O 0,00 h 0,051 mm 0 W/m 12,8 C 18,7 C 9,0 km/h (2 Bft)
18/08/2007 06:00 18,7 C 80 % 1012,0 hPa 0,0 l/m 6,3 km/h (2 Bft) O-NO 0,00 h 0,051 mm 7 W/m 15,1 C 18,7 C 8,7 km/h (2 Bft)
18/08/2007 07:00 18,7 C 78 % 1012,1 hPa 0,0 l/m 6,0 km/h (2 Bft) O-NO 0,00 h 0,025 mm 46 W/m 14,7 C 18,7 C 8,4 km/h (2 Bft)
18/08/2007 08:00 20,1 C 70 % 1012,1 hPa 0,0 l/m 2,0 km/h (1 Bft) O 0,00 h 0,051 mm 120 W/m 14,4 C 20,1 C 3,8 km/h (1 Bft)
18/08/2007 09:00 21,9 C 73 % 1012,7 hPa 0,0 l/m 2,2 km/h (1 Bft) E 0,22 h 0,076 mm 256 W/m 16,8 C 21,9 C 4,1 km/h (1 Bft)
18/08/2007 10:00 23,2 C 69 % 1012,7 hPa 0,0 l/m 5,2 km/h (1 Bft) E 0,57 h 0,178 mm 419 W/m 17,3 C 23,2 C 8,3 km/h (2 Bft)
18/08/2007 11:00 25,1 C 62 % 1012,5 hPa 0,0 l/m 7,3 km/h (2 Bft) E 1,00 h 0,279 mm 677 W/m 17,3 C 25,1 C 12,8 km/h (3 Bft)
18/08/2007 12:00 25,7 C 62 % 1012,4 hPa 0,0 l/m 10,0 km/h (2 Bft) E 1,00 h 0,483 mm 778 W/m 17,8 C 25,7 C 16,7 km/h (3 Bft)
18/08/2007 13:00 25,8 C 64 % 1012,4 hPa 0,0 l/m 10,1 km/h (2 Bft) E 1,00 h 0,559 mm 819 W/m 18,4 C 25,8 C 16,7 km/h (3 Bft)
18/08/2007 14:00 26,1 C 63 % 1012,2 hPa 0,0 l/m 10,0 km/h (2 Bft) E 1,00 h 0,559 mm 793 W/m 18,4 C 26,1 C 16,7 km/h (3 Bft)
18/08/2007 15:00 25,5 C 64 % 1012,2 hPa 0,0 l/m 7,9 km/h (2 Bft) E 1,00 h 0,559 mm 706 W/m 18,2 C 25,5 C 14,4 km/h (3 Bft)
18/08/2007 16:00 25,5 C 61 % 1011,7 hPa 0,0 l/m 7,1 km/h (2 Bft) E 1,00 h 0,483 mm 589 W/m 17,5 C 25,5 C 11,4 km/h (2 Bft)
18/08/2007 17:00 25,0 C 58 % 1011,5 hPa 0,0 l/m 7,7 km/h (2 Bft) E 1,00 h 0,432 mm 434 W/m 16,0 C 25,0 C 13,0 km/h (3 Bft)
18/08/2007 18:00 23,9 C 58 % 1011,5 hPa 0,0 l/m 5,2 km/h (1 Bft) E 1,00 h 0,330 mm 264 W/m 15,1 C 23,9 C 9,1 km/h (2 Bft)
18/08/2007 19:00 22,5 C 66 % 1011,3 hPa 0,0 l/m 1,6 km/h (1 Bft) E 0,55 h 0,203 mm 97 W/m 15,9 C 22,5 C 4,1 km/h (1 Bft)
18/08/2007 20:00 20,4 C 76 % 1011,5 hPa 0,0 l/m 1,3 km/h (1 Bft) E-SE 0,02 h 0,076 mm 13 W/m 15,9 C 20,4 C 3,1 km/h (1 Bft)
18/08/2007 21:00 19,3 C 83 % 1011,5 hPa 0,0 l/m 0,2 km/h (0 Bft) E 0,00 h 0,025 mm 0 W/m 16,2 C 19,3 C 0,6 km/h (0 Bft)
18/08/2007 22:00 18,8 C 85 % 1011,6 hPa 0,0 l/m 0,5 km/h (0 Bft) E 0,00 h 0,025 mm 0 W/m 16,2 C 18,8 C 1,1 km/h (0 Bft)
18/08/2007 23:00 18,5 C 85 % 1011,5 hPa 0,0 l/m 2,5 km/h (1 Bft) E 0,00 h 0,025 mm 0 W/m 15,9 C 18,5 C 3,3 km/h (1 Bft)
19/08/2007 00:00 18,2 C 86 % 1011,4 hPa 0,0 l/m 3,3 km/h (1 Bft) NO 0,00 h 0,025 mm 0 W/m 15,8 C 18,2 C 4,6 km/h (1 Bft)
19/08/2007 01:00 17,7 C 87 % 1011,1 hPa 0,0 l/m 1,7 km/h (1 Bft) O-NO 0,00 h 0,025 mm 0 W/m 15,5 C 17,7 C 3,5 km/h (1 Bft)
19/08/2007 02:00 17,4 C 88 % 1011,0 hPa 0,0 l/m 4,9 km/h (1 Bft) O-NO 0,00 h 0,025 mm 0 W/m 15,3 C 17,4 C 6,8 km/h (2 Bft)
19/08/2007 03:00 17,3 C 87 % 1011,0 hPa 0,0 l/m 6,2 km/h (2 Bft) O-NO 0,00 h 0,025 mm 0 W/m 15,1 C 17,3 C 7,6 km/h (2 Bft)
19/08/2007 04:00 17,0 C 87 % 1010,7 hPa 0,0 l/m 4,7 km/h (1 Bft) O-NO 0,00 h 0,025 mm 0 W/m 14,8 C 17,0 C 6,5 km/h (2 Bft)
19/08/2007 05:00 16,8 C 87 % 1010,5 hPa 0,0 l/m 3,1 km/h (1 Bft) O-NO 0,00 h 0,025 mm 0 W/m 14,6 C 16,8 C 4,4 km/h (1 Bft)
19/08/2007 06:00 16,6 C 86 % 1010,6 hPa 0,0 l/m 4,2 km/h (1 Bft) O-NO 0,02 h 0,025 mm 9 W/m 14,3 C 16,6 C 5,5 km/h (1 Bft)
19/08/2007 07:00 16,9 C 83 % 1010,8 hPa 0,0 l/m 3,3 km/h (1 Bft) O-NO 0,15 h 0,025 mm 50 W/m 14,1 C 16,9 C 4,7 km/h (1 Bft)
19/08/2007 08:00 19,3 C 78 % 1010,9 hPa 0,0 l/m 0,5 km/h (0 Bft) E-SE 0,58 h 0,051 mm 168 W/m 15,3 C 19,3 C 1,6 km/h (1 Bft)
19/08/2007 09:00 21,8 C 70 % 1011,1 hPa 0,0 l/m 3,9 km/h (1 Bft) S-SO 1,00 h 0,102 mm 396 W/m 16,1 C 21,8 C 6,7 km/h (2 Bft)
19/08/2007 10:00 23,5 C 62 % 1011,1 hPa 0,0 l/m 5,5 km/h (1 Bft) E 1,00 h 0,254 mm 555 W/m 15,7 C 23,5 C 9,3 km/h (2 Bft)
19/08/2007 11:00 24,8 C 59 % 1011,0 hPa 0,0 l/m 8,6 km/h (2 Bft) E 1,00 h 0,381 mm 685 W/m 16,2 C 24,8 C 13,8 km/h (3 Bft)
19/08/2007 12:00 25,3 C 60 % 1010,8 hPa 0,0 l/m 11,2 km/h (2 Bft) E 1,00 h 0,483 mm 774 W/m 16,9 C 25,3 C 16,8 km/h (3 Bft)
19/08/2007 13:00 25,7 C 60 % 1010,2 hPa 0,0 l/m 11,8 km/h (2 Bft) E 1,00 h 0,559 mm 754 W/m 17,2 C 25,7 C 17,6 km/h (3 Bft)
19/08/2007 14:00 25,5 C 61 % 1009,7 hPa 0,0 l/m 10,7 km/h (2 Bft) E 0,98 h 0,559 mm 728 W/m 17,4 C 25,5 C 16,4 km/h (3 Bft)
19/08/2007 15:00 25,3 C 62 % 1009,2 hPa 0,0 l/m 11,8 km/h (2 Bft) E 0,93 h 0,508 mm 720 W/m 17,5 C 25,3 C 17,5 km/h (3 Bft)
19/08/2007 16:00 24,5 C 67 % 1009,1 hPa 0,0 l/m 10,9 km/h (2 Bft) E 0,55 h 0,508 mm 429 W/m 17,9 C 24,5 C 16,1 km/h (3 Bft)
19/08/2007 17:00 23,1 C 72 % 1009,0 hPa 0,0 l/m 6,6 km/h (2 Bft) E 0,05 h 0,330 mm 236 W/m 17,6 C 23,1 C 10,0 km/h (2 Bft)
19/08/2007 18:00 22,4 C 75 % 1008,6 hPa 0,0 l/m 5,1 km/h (1 Bft) E 0,07 h 0,178 mm 147 W/m 17,8 C 22,4 C 7,5 km/h (2 Bft)
19/08/2007 19:00 21,4 C 79 % 1007,9 hPa 0,0 l/m 3,6 km/h (1 Bft) E 0,00 h 0,127 mm 46 W/m 17,6 C 21,4 C 5,8 km/h (2 Bft)
19/08/2007 20:00 20,4 C 82 % 1007,4 hPa 0,0 l/m 1,2 km/h (1 Bft) E 0,00 h 0,051 mm 7 W/m 17,1 C 20,4 C 2,0 km/h (1 Bft)
19/08/2007 21:00 19,9 C 83 % 1007,2 hPa 0,0 l/m 3,4 km/h (1 Bft) SO 0,00 h 0,000 mm 0 W/m 16,9 C 19,9 C 5,2 km/h (1 Bft)
19/08/2007 22:00 19,5 C 86 % 1006,8 hPa 0,0 l/m 1,1 km/h (1 Bft) O-SO 0,00 h 0,025 mm 0 W/m 17,0 C 19,5 C 1,9 km/h (1 Bft)
19/08/2007 23:00 19,1 C 86 % 1006,6 hPa 0,0 l/m 0,7 km/h (0 Bft) N 0,00 h 0,025 mm 0 W/m 16,7 C 19,1 C 1,8 km/h (1 Bft)
Min-Date _ 17/08/07 17/08/07 19/08/07 - 13/08/07 - - - - 17/08/07 17/08/07 13/08/07
_ Min-Heure 05:59 14:01 23:45 - 00:23 - - - - 14:01 05:59 00:26
Minimum _ 16,4 C 32 % 1006,4 hPa - 0,0 km/h (0 Bft) - - - - 10,6 C 16,4 C 0,0 km/h (0 Bft)
Max-Date _ 17/08/07 17/08/07 15/08/07 17/08/07 16/08/07 - 13/08/07 17/08/07 13/08/07 16/08/07 17/08/07 16/08/07
_ Max-Heure 15:36 03:28 11:00 04:01 12:05 - 07:50 15:00 13:18 18:10 15:36 12:05
Maximum _ 30,6 C 96 % 1013,9 hPa 0,2 l/m 25,7 km/h
S-SE (4 Bft)
- 0,02 h 0,686 mm 1039 W/m 21,8 C 30,6 C 53,1 km/h
S-SE (7 Bft)
Moyenne _ 22,3 C 76 % 1011,4 hPa #0,2 l/m 4,9 km/h (1 Bft) E #56:59 h #29,821 mm 357 W/m 17,6 C 22,3 C 7,7 km/h (2 Bft)
Roquefort les pins